Observation data for Tulia on 01/19/2019      Previous  Date  Next       Current Mesonet Observations  Soil Data  Daily Summary Page  Observations in Plain Language
KTIS 190600Z 34020G26KT M01/M02 A3004 RMK A01 T10051024  RH  088%=      5-min Rain = 0
KTIS 190605Z 33018KT M01/M02 A3004 RMK A01 T10051023  RH  088%=      5-min Rain = 0
KTIS 190610Z 33019G25KT M00/M02 A3004 RMK A01 T10031022  RH  087%=      5-min Rain = 0
KTIS 190615Z 33020G26KT M00/M02 A3004 RMK A01 T10021023  RH  086%=      5-min Rain = 0
KTIS 190620Z 33022G28KT 00/03 A3005 RMK A01 T00-00-25  RH  084%=      5-min Rain = 0
KTIS 190625Z 33025G36KT 00/M03 A3005 RMK A01 T00021028  RH  081%=      5-min Rain = 0
KTIS 190630Z 34025G31KT 00/M03 A3005 RMK A01 T00031029  RH  080%=      5-min Rain = 0
KTIS 190635Z 33026G33KT 00/M03 A3005 RMK A01 T00031030  RH  079%=      5-min Rain = 0
KTIS 190640Z 33022G28KT 00/M03 A3006 RMK A01 T00021030  RH  080%=      5-min Rain = 0
KTIS 190645Z 33026G35KT 00/M03 A3006 RMK A01 T00021032  RH  079%=      5-min Rain = 0
KTIS 190650Z 33027G32KT 00/03 A3005 RMK A01 T00-00-34  RH  078%=      5-min Rain = 0
KTIS 190655Z 33027G32KT M00/M04 A3005 RMK A01 T10011036  RH  078%=      5-min Rain = 0
KTIS 190700Z 33028G38KT M00/M04 A3006 RMK A01 T10021037  RH  078%=      5-min Rain = 0
KTIS 190705Z 33028G34KT M00/M04 A3006 RMK A01 T10041041  RH  077%=      5-min Rain = 0
KTIS 190710Z 34029G38KT M01/M04 A3006 RMK A01 T10051043  RH  076%=      5-min Rain = 0
KTIS 190715Z 33029G39KT M01/M04 A3006 RMK A01 T10061044  RH  076%=      5-min Rain = 0
KTIS 190720Z 34030G38KT M01/M05 A3006 RMK A01 T10061045  RH  075%=      5-min Rain = 0
KTIS 190725Z 33022G27KT M01/M04 A3007 RMK A01 T10091044  RH  077%=      5-min Rain = 0
KTIS 190730Z 33024G30KT M01/M04 A3007 RMK A01 T10101040  RH  080%=      5-min Rain = 0
KTIS 190735Z 33026G31KT M01/M04 A3007 RMK A01 T10091041  RH  079%=      5-min Rain = 0
KTIS 190740Z 33026G32KT M01/M04 A3007 RMK A01 T10101042  RH  079%=      5-min Rain = 0
KTIS 190745Z 33027G34KT M01/M04 A3007 RMK A01 T10101044  RH  078%=      5-min Rain = 0
KTIS 190750Z 33028G34KT M01/M05 A3007 RMK A01 T10101046  RH  077%=      5-min Rain = 0
KTIS 190755Z 33025G30KT M01/M05 A3008 RMK A01 T10111047  RH  077%=      5-min Rain = 0
KTIS 190800Z 33024G31KT M01/M05 A3008 RMK A01 T10121046  RH  078%=      5-min Rain = 0
KTIS 190805Z 33023G28KT M01/M05 A3008 RMK A01 T10131047  RH  078%=      5-min Rain = 0
KTIS 190810Z 34023G29KT M01/M05 A3008 RMK A01 T10131048  RH  078%=      5-min Rain = 0
KTIS 190815Z 33023G29KT M01/M05 A3009 RMK A01 T10141048  RH  078%=      5-min Rain = 0
KTIS 190820Z 33023G28KT M02/M05 A3009 RMK A01 T10151048  RH  078%=      5-min Rain = 0
KTIS 190825Z 33023G28KT M02/M05 A3009 RMK A01 T10151048  RH  078%=      5-min Rain = 0
KTIS 190830Z 33023G29KT M01/M05 A301 RMK A01 T10141048  RH  078%=      5-min Rain = 0
KTIS 190835Z 33023G30KT M01/M05 A301 RMK A01 T10141049  RH  078%=      5-min Rain = 0
KTIS 190840Z 33019KT M02/M05 A301 RMK A01 T10171048  RH  079%=      5-min Rain = 0
KTIS 190845Z 32017KT M02/M05 A3011 RMK A01 T10191047  RH  081%=      5-min Rain = 0
KTIS 190850Z 32021G28KT M02/M05 A3011 RMK A01 T10201048  RH  082%=      5-min Rain = 0
KTIS 190855Z 33023G28KT M02/M05 A3011 RMK A01 T10211051  RH  080%=      5-min Rain = 0
KTIS 190900Z 33023G29KT M02/M05 A3012 RMK A01 T10221053  RH  079%=      5-min Rain = 0
KTIS 190905Z 33024G30KT M02/M06 A3012 RMK A01 T10221055  RH  079%=      5-min Rain = 0
KTIS 190910Z 33025G32KT M02/M06 A3012 RMK A01 T10231056  RH  078%=      5-min Rain = 0
KTIS 190915Z 33023G30KT M02/M06 A3013 RMK A01 T10231056  RH  079%=      5-min Rain = 0
KTIS 190920Z 33021G26KT M03/M06 A3013 RMK A01 T10251056  RH  080%=      5-min Rain = 0
KTIS 190925Z 33020G26KT M03/M06 A3013 RMK A01 T10261056  RH  080%=      5-min Rain = 0
KTIS 190930Z 33020G25KT M03/M06 A3014 RMK A01 T10271055  RH  081%=      5-min Rain = 0
KTIS 190935Z 33021G26KT M03/M06 A3014 RMK A01 T10261056  RH  081%=      5-min Rain = 0
KTIS 190940Z 33018G23KT M03/M06 A3014 RMK A01 T10271056  RH  081%=      5-min Rain = 0
KTIS 190945Z 33018G23KT M03/M06 A3015 RMK A01 T10281056  RH  081%=      5-min Rain = 0
KTIS 190950Z 33019KT M03/M06 A3015 RMK A01 T10281055  RH  082%=      5-min Rain = 0
KTIS 190955Z 33019G24KT M03/M06 A3015 RMK A01 T10281055  RH  082%=      5-min Rain = 0
KTIS 191000Z 33020G29KT M03/M05 A3015 RMK A01 T10271054  RH  082%=      5-min Rain = 0
KTIS 191005Z 33022G27KT M03/M06 A3015 RMK A01 T10271055  RH  081%=      5-min Rain = 0
KTIS 191010Z 33022KT M03/M06 A3015 RMK A01 T10271055  RH  081%=      5-min Rain = 0
KTIS 191015Z 33021G27KT M03/M06 A3015 RMK A01 T10291056  RH  082%=      5-min Rain = 0
KTIS 191020Z 33021KT M03/M06 A3015 RMK A01 T10291056  RH  082%=      5-min Rain = 0
KTIS 191025Z 33021G26KT M03/M06 A3016 RMK A01 T10291056  RH  082%=      5-min Rain = 0
KTIS 191030Z 33019G24KT M03/M06 A3016 RMK A01 T10301056  RH  082%=      5-min Rain = 0
KTIS 191035Z 33018KT M03/M06 A3015 RMK A01 T10301056  RH  083%=      5-min Rain = 0
KTIS 191040Z 33018G23KT M03/M06 A3015 RMK A01 T10301056  RH  083%=      5-min Rain = 0
KTIS 191045Z 33020G26KT M03/M06 A3015 RMK A01 T10291055  RH  082%=      5-min Rain = 0
KTIS 191050Z 33020KT M03/M06 A3016 RMK A01 T10291055  RH  082%=      5-min Rain = 0
KTIS 191055Z 33019G24KT M03/M06 A3016 RMK A01 T10291055  RH  083%=      5-min Rain = 0
KTIS 191100Z 32017G23KT M03/M06 A3016 RMK A01 T10301055  RH  083%=      5-min Rain = 0
KTIS 191105Z 32018G24KT M03/M06 A3016 RMK A01 T10311055  RH  083%=      5-min Rain = 0
KTIS 191110Z 32020G26KT M03/M06 A3016 RMK A01 T10301055  RH  083%=      5-min Rain = 0
KTIS 191115Z 32019G25KT M03/M05 A3016 RMK A01 T10291054  RH  083%=      5-min Rain = 0
KTIS 191120Z 33018G23KT M03/M05 A3016 RMK A01 T10301054  RH  084%=      5-min Rain = 0
KTIS 191125Z 32018KT M03/M05 A3016 RMK A01 T10291054  RH  084%=      5-min Rain = 0
KTIS 191130Z 32018G24KT M03/M05 A3017 RMK A01 T10291054  RH  083%=      5-min Rain = 0
KTIS 191135Z 32019KT M03/M05 A3017 RMK A01 T10291054  RH  083%=      5-min Rain = 0
KTIS 191140Z 32017G22KT M03/M05 A3017 RMK A01 T10301054  RH  084%=      5-min Rain = 0
KTIS 191145Z 33016G21KT M03/M06 A3017 RMK A01 T10321055  RH  084%=      5-min Rain = 0
KTIS 191150Z 33016G21KT M03/M06 A3017 RMK A01 T10331055  RH  085%=      5-min Rain = 0
KTIS 191155Z 33016KT M03/M06 A3017 RMK A01 T10341056  RH  085%=      5-min Rain = 0
KTIS 191200Z 33016KT M03/M06 A3017 RMK A01 T10341056  RH  085%=      5-min Rain = 0
KTIS 191205Z 33014KT M04/M06 A3017 RMK A01 T10351057  RH  085%=      5-min Rain = 0
KTIS 191210Z 33015KT M04/M06 A3017 RMK A01 T10351057  RH  085%=      5-min Rain = 0
KTIS 191215Z 34015KT M04/M06 A3017 RMK A01 T10351057  RH  085%=      5-min Rain = 0
KTIS 191220Z 34014KT M04/M06 A3017 RMK A01 T10361058  RH  085%=      5-min Rain = 0
KTIS 191225Z 33014KT M04/M06 A3018 RMK A01 T10371058  RH  086%=      5-min Rain = 0
KTIS 191230Z 33014KT M04/M06 A3018 RMK A01 T10381058  RH  086%=      5-min Rain = 0
KTIS 191235Z 33014KT M04/M06 A3018 RMK A01 T10381059  RH  086%=      5-min Rain = 0
KTIS 191240Z 33013KT M04/M06 A3018 RMK A01 T10391059  RH  086%=      5-min Rain = 0
KTIS 191245Z 33014KT M04/M06 A3018 RMK A01 T10391059  RH  086%=      5-min Rain = 0
KTIS 191250Z 33012KT M04/M06 A3019 RMK A01 T10391059  RH  086%=      5-min Rain = 0
KTIS 191255Z 32013KT M04/M06 A3019 RMK A01 T10391059  RH  086%=      5-min Rain = 0
KTIS 191300Z 32013KT M04/M06 A3019 RMK A01 T10401060  RH  086%=      5-min Rain = 0
KTIS 191305Z 32012KT M04/M06 A302 RMK A01 T10411060  RH  086%=      5-min Rain = 0
KTIS 191310Z 31011KT M04/M06 A302 RMK A01 T10431062  RH  087%=      5-min Rain = 0
KTIS 191315Z 32011KT M05/M06 A302 RMK A01 T10451063  RH  087%=      5-min Rain = 0
KTIS 191320Z 32011KT M05/M06 A302 RMK A01 T10461064  RH  087%=      5-min Rain = 0
KTIS 191325Z 31011KT M05/M07 A3021 RMK A01 T10471065  RH  087%=      5-min Rain = 0
KTIS 191330Z 31011KT M05/M07 A3021 RMK A01 T10471065  RH  087%=      5-min Rain = 0
KTIS 191335Z 32011KT M05/M07 A3021 RMK A01 T10481066  RH  088%=      5-min Rain = 0
KTIS 191340Z 32010KT M05/M07 A3022 RMK A01 T10491066  RH  087%=      5-min Rain = 0
KTIS 191345Z 32010KT M05/M07 A3022 RMK A01 T10491067  RH  087%=      5-min Rain = 0
KTIS 191350Z 32008KT M05/M07 A3023 RMK A01 T10511069  RH  088%=      5-min Rain = 0
KTIS 191355Z 33008KT M05/M07 A3023 RMK A01 T10531070  RH  088%=      5-min Rain = 0
KTIS 191400Z 33008KT M05/M07 A3024 RMK A01 T10541072  RH  088%=      5-min Rain = 0
KTIS 191405Z 33007KT M06/M07 A3024 RMK A01 T10561072  RH  088%=      5-min Rain = 0
KTIS 191410Z 33008KT M06/M07 A3024 RMK A01 T10561072  RH  088%=      5-min Rain = 0
KTIS 191415Z 33008KT M05/M07 A3024 RMK A01 T10541070  RH  088%=      5-min Rain = 0
KTIS 191420Z 33008KT M05/M07 A3025 RMK A01 T10511067  RH  088%=      5-min Rain = 0
KTIS 191425Z 33008KT M05/M06 A3025 RMK A01 T10461064  RH  088%=      5-min Rain = 0
KTIS 191430Z 32009KT M04/M06 A3025 RMK A01 T10421061  RH  086%=      5-min Rain = 0
KTIS 191435Z 32009KT M04/M06 A3025 RMK A01 T10391060  RH  085%=      5-min Rain = 0
KTIS 191440Z 33009KT M04/M06 A3025 RMK A01 T10381060  RH  085%=      5-min Rain = 0
KTIS 191445Z 33008KT M04/M06 A3026 RMK A01 T10371060  RH  084%=      5-min Rain = 0
KTIS 191450Z 33009KT M04/M06 A3026 RMK A01 T10351058  RH  084%=      5-min Rain = 0
KTIS 191455Z 34010KT M03/M06 A3026 RMK A01 T10321057  RH  083%=      5-min Rain = 0
KTIS 191500Z 34009KT M03/M05 A3027 RMK A01 T10291054  RH  083%=      5-min Rain = 0
KTIS 191505Z 33009KT M03/M05 A3027 RMK A01 T10251051  RH  082%=      5-min Rain = 0
KTIS 191510Z 34009KT M02/M05 A3027 RMK A01 T10191047  RH  081%=      5-min Rain = 0
KTIS 191515Z 34010KT M02/M05 A3028 RMK A01 T10151047  RH  079%=      5-min Rain = 0
KTIS 191520Z 34010KT M01/M05 A3028 RMK A01 T10141046  RH  079%=      5-min Rain = 0
KTIS 191525Z 34010KT M01/M05 A3028 RMK A01 T10111046  RH  078%=      5-min Rain = 0
KTIS 191530Z 34010KT M01/M05 A3028 RMK A01 T10091045  RH  077%=      5-min Rain = 0
KTIS 191535Z 34011G16KT M01/M04 A3028 RMK A01 T10071044  RH  076%=      5-min Rain = 0
KTIS 191540Z 34010KT M00/M04 A3028 RMK A01 T10041043  RH  075%=      5-min Rain = 0
KTIS 191545Z 34013KT M00/M04 A3029 RMK A01 T10011043  RH  074%=      5-min Rain = 0
KTIS 191550Z 35013KT 00/M04 A3029 RMK A01 T00021042  RH  073%=      5-min Rain = 0
KTIS 191555Z 34013G19KT 00/M04 A3029 RMK A01 T00031042  RH  072%=      5-min Rain = 0
KTIS 191600Z 34013KT 01/M04 A3029 RMK A01 T00061041  RH  071%=      5-min Rain = 0
KTIS 191605Z 33013KT 01/M04 A3029 RMK A01 T00091041  RH  070%=      5-min Rain = 0
KTIS 191610Z 35013KT 01/M04 A3029 RMK A01 T00111040  RH  069%=      5-min Rain = 0
KTIS 191615Z 34013KT 01/M04 A3029 RMK A01 T00141038  RH  068%=      5-min Rain = 0
KTIS 191620Z 35013KT 02/M04 A3029 RMK A01 T00171037  RH  067%=      5-min Rain = 0
KTIS 191625Z 33017KT 02/M04 A303 RMK A01 T00201037  RH  066%=      5-min Rain = 0
KTIS 191630Z 34017G22KT 02/M04 A303 RMK A01 T00221037  RH  065%=      5-min Rain = 0
KTIS 191635Z 34017KT 03/M04 A303 RMK A01 T00271036  RH  063%=      5-min Rain = 0
KTIS 191640Z 35019KT 03/M04 A303 RMK A01 T00261038  RH  063%=      5-min Rain = 0
KTIS 191645Z 35017G22KT 03/M04 A303 RMK A01 T00301036  RH  062%=      5-min Rain = 0
KTIS 191650Z 35018KT 03/M04 A3031 RMK A01 T00301037  RH  061%=      5-min Rain = 0
KTIS 191655Z 34018G23KT 03/M04 A3031 RMK A01 T00301038  RH  062%=      5-min Rain = 0
KTIS 191700Z 34018G23KT 03/M04 A3031 RMK A01 T00321037  RH  061%=      5-min Rain = 0
KTIS 191705Z 34018G23KT 03/M04 A3031 RMK A01 T00321036  RH  061%=      5-min Rain = 0
KTIS 191710Z 34016G22KT 03/M03 A3031 RMK A01 T00341034  RH  061%=      5-min Rain = 0
KTIS 191715Z 34016KT 04/M03 A303 RMK A01 T00381033  RH  060%=      5-min Rain = 0
KTIS 191720Z 34016G21KT 04/M03 A303 RMK A01 T00401033  RH  059%=      5-min Rain = 0
KTIS 191725Z 35017G22KT 04/M03 A3031 RMK A01 T00411032  RH  059%=      5-min Rain = 0
KTIS 191730Z 35018KT 04/M03 A3031 RMK A01 T00431032  RH  058%=      5-min Rain = 0
KTIS 191735Z 34019G24KT 05/M03 A3031 RMK A01 T00451033  RH  057%=      5-min Rain = 0
KTIS 191740Z 34019KT 05/M03 A3031 RMK A01 T00461033  RH  057%=      5-min Rain = 0
KTIS 191745Z 34020KT 05/M03 A3031 RMK A01 T00471034  RH  056%=      5-min Rain = 0
KTIS 191750Z 34021KT 05/M03 A3031 RMK A01 T00471034  RH  056%=      5-min Rain = 0
KTIS 191755Z 34020G26KT 05/M03 A3031 RMK A01 T00481034  RH  056%=      5-min Rain = 0
KTIS 191800Z 34021G27KT 05/M03 A3031 RMK A01 T00511034  RH  055%=      5-min Rain = 0
KTIS 191805Z 34020KT 05/M03 A3031 RMK A01 T00511034  RH  055%=      5-min Rain = 0
KTIS 191810Z 34019G27KT 05/M03 A3031 RMK A01 T00531033  RH  054%=      5-min Rain = 0
KTIS 191815Z 33021KT 05/M03 A3031 RMK A01 T00541034  RH  053%=      5-min Rain = 0
KTIS 191820Z 33020KT 05/M04 A3031 RMK A01 T00521035  RH  053%=      5-min Rain = 0
KTIS 191825Z 33021G26KT 05/M04 A3031 RMK A01 T00521035  RH  054%=      5-min Rain = 0
KTIS 191830Z 34019KT 05/M03 A303 RMK A01 T00531034  RH  054%=      5-min Rain = 0
KTIS 191835Z 33019G24KT 05/M04 A303 RMK A01 T00501036  RH  054%=      5-min Rain = 0
KTIS 191840Z 33018KT 05/M04 A303 RMK A01 T00501035  RH  054%=      5-min Rain = 0
KTIS 191845Z 34017KT 05/M03 A303 RMK A01 T00531034  RH  054%=      5-min Rain = 0
KTIS 191850Z 34017G22KT 05/M03 A303 RMK A01 T00521034  RH  054%=      5-min Rain = 0
KTIS 191855Z 34016G26KT 06/M03 A3029 RMK A01 T00561033  RH  053%=      5-min Rain = 0
KTIS 191900Z 34016KT 06/M03 A3029 RMK A01 T00571034  RH  053%=      5-min Rain = 0
KTIS 191905Z 33016G22KT 05/M03 A3029 RMK A01 T00541034  RH  053%=      5-min Rain = 0
KTIS 191910Z 34015KT 06/M03 A3029 RMK A01 T00581034  RH  052%=      5-min Rain = 0
KTIS 191915Z 33014G20KT 06/M03 A3029 RMK A01 T00601033  RH  051%=      5-min Rain = 0
KTIS 191920Z 33015G20KT 06/M03 A3029 RMK A01 T00601034  RH  051%=      5-min Rain = 0
KTIS 191925Z 33015G20KT 06/M03 A3029 RMK A01 T00601033  RH  052%=      5-min Rain = 0
KTIS 191930Z 33015G22KT 06/M03 A3029 RMK A01 T00641034  RH  050%=      5-min Rain = 0
KTIS 191935Z 33016G21KT 06/M04 A3028 RMK A01 T00611035  RH  051%=      5-min Rain = 0
KTIS 191940Z 32015KT 07/M03 A3028 RMK A01 T00651032  RH  050%=      5-min Rain = 0
KTIS 191945Z 33014G23KT 06/M04 A3028 RMK A01 T00631035  RH  049%=      5-min Rain = 0
KTIS 191950Z 33014KT 07/M03 A3028 RMK A01 T00671032  RH  050%=      5-min Rain = 0
KTIS 191955Z 32015G20KT 07/M04 A3027 RMK A01 T00661035  RH  049%=      5-min Rain = 0
KTIS 192000Z 33016G21KT 07/M03 A3027 RMK A01 T00671034  RH  049%=      5-min Rain = 0
KTIS 192005Z 33015G21KT 07/M03 A3027 RMK A01 T00681034  RH  048%=      5-min Rain = 0
KTIS 192010Z 34017G22KT 07/M04 A3026 RMK A01 T00671035  RH  048%=      5-min Rain = 0
KTIS 192015Z 33017G23KT 07/M03 A3026 RMK A01 T00701034  RH  048%=      5-min Rain = 0
KTIS 192020Z 32017G22KT 07/M04 A3026 RMK A01 T00701035  RH  048%=      5-min Rain = 0
KTIS 192025Z 33015KT 07/M04 A3026 RMK A01 T00691035  RH  048%=      5-min Rain = 0
KTIS 192030Z 34014KT 07/M03 A3026 RMK A01 T00721034  RH  047%=      5-min Rain = 0
KTIS 192035Z 33016G21KT 07/M04 A3026 RMK A01 T00721036  RH  047%=      5-min Rain = 0
KTIS 192040Z 32017KT 07/M04 A3026 RMK A01 T00741035  RH  046%=      5-min Rain = 0
KTIS 192045Z 33016G21KT 07/M04 A3026 RMK A01 T00741038  RH  045%=      5-min Rain = 0
KTIS 192050Z 34016KT 07/M04 A3026 RMK A01 T00741041  RH  044%=      5-min Rain = 0
KTIS 192055Z 34016G21KT 08/M04 A3026 RMK A01 T00761038  RH  045%=      5-min Rain = 0
KTIS 192100Z 34016KT 08/M04 A3026 RMK A01 T00751038  RH  045%=      5-min Rain = 0
KTIS 192105Z 33016G22KT 08/M04 A3026 RMK A01 T00771041  RH  043%=      5-min Rain = 0
KTIS 192110Z 34015KT 08/M04 A3025 RMK A01 T00791038  RH  044%=      5-min Rain = 0
KTIS 192115Z 34016KT 08/M04 A3025 RMK A01 T00781042  RH  043%=      5-min Rain = 0
KTIS 192120Z 35016G21KT 08/M04 A3025 RMK A01 T00761041  RH  043%=      5-min Rain = 0
KTIS 192125Z 33016G21KT 08/M04 A3025 RMK A01 T00781040  RH  043%=      5-min Rain = 0
KTIS 192130Z 34015KT 08/M04 A3025 RMK A01 T00791041  RH  043%=      5-min Rain = 0
KTIS 192135Z 34016KT 08/M04 A3025 RMK A01 T00821040  RH  042%=      5-min Rain = 0
KTIS 192140Z 33014KT 08/M04 A3025 RMK A01 T00811037  RH  043%=      5-min Rain = 0
KTIS 192145Z 32013G18KT 08/M04 A3025 RMK A01 T00811036  RH  044%=      5-min Rain = 0
KTIS 192150Z 34013KT 08/M04 A3026 RMK A01 T00811038  RH  043%=      5-min Rain = 0
KTIS 192155Z 33014KT 08/M04 A3026 RMK A01 T00821038  RH  043%=      5-min Rain = 0
KTIS 192200Z 33015KT 08/M04 A3026 RMK A01 T00821038  RH  043%=      5-min Rain = 0
KTIS 192205Z 33015KT 08/M04 A3026 RMK A01 T00801040  RH  043%=      5-min Rain = 0
KTIS 192210Z 32013KT 08/M04 A3026 RMK A01 T00801040  RH  043%=      5-min Rain = 0
KTIS 192215Z 32014KT 08/M04 A3026 RMK A01 T00811042  RH  042%=      5-min Rain = 0
KTIS 192220Z 34013KT 08/M04 A3026 RMK A01 T00821041  RH  042%=      5-min Rain = 0
KTIS 192225Z 33012KT 08/M04 A3026 RMK A01 T00811042  RH  042%=      5-min Rain = 0
KTIS 192230Z 34012KT 08/M04 A3026 RMK A01 T00811042  RH  042%=      5-min Rain = 0
KTIS 192235Z 35012KT 08/M04 A3026 RMK A01 T00821040  RH  042%=      5-min Rain = 0
KTIS 192240Z 35012KT 08/M04 A3026 RMK A01 T00811041  RH  042%=      5-min Rain = 0
KTIS 192245Z 35009KT 08/M04 A3026 RMK A01 T00801043  RH  042%=      5-min Rain = 0
KTIS 192250Z 35010KT 08/M04 A3026 RMK A01 T00801043  RH  042%=      5-min Rain = 0
KTIS 192255Z 35011KT 08/M04 A3026 RMK A01 T00791043  RH  042%=      5-min Rain = 0
KTIS 192300Z 35010KT 08/M04 A3026 RMK A01 T00781043  RH  042%=      5-min Rain = 0
KTIS 192305Z 35011KT 08/M04 A3026 RMK A01 T00771042  RH  043%=      5-min Rain = 0
KTIS 192310Z 34010KT 08/M04 A3026 RMK A01 T00761041  RH  043%=      5-min Rain = 0
KTIS 192315Z 34008KT 08/M04 A3026 RMK A01 T00751041  RH  044%=      5-min Rain = 0
KTIS 192320Z 35008KT 07/M04 A3026 RMK A01 T00741041  RH  044%=      5-min Rain = 0
KTIS 192325Z 36007KT 07/M04 A3026 RMK A01 T00741042  RH  044%=      5-min Rain = 0
KTIS 192330Z 35006KT 07/M04 A3026 RMK A01 T00721042  RH  045%=      5-min Rain = 0
KTIS 192335Z 35008KT 07/M04 A3026 RMK A01 T00691042  RH  045%=      5-min Rain = 0
KTIS 192340Z 36007KT 07/M04 A3026 RMK A01 T00651042  RH  047%=      5-min Rain = 0
KTIS 192345Z 00007KT 06/M04 A3026 RMK A01 T00631043  RH  047%=      5-min Rain = 0
KTIS 192350Z 00006KT 06/M04 A3026 RMK A01 T00581044  RH  048%=      5-min Rain = 0
KTIS 192355Z 00006KT 05/M05 A3026 RMK A01 T00541046  RH  049%=      5-min Rain = 0
KTIS 200000Z 00005KT 05/M05 A3026 RMK A01 T00471048  RH  050%=      5-min Rain = 0
KTIS 200005Z 00004KT 04/M05 A3026 RMK A01 T00421049  RH  052%=      5-min Rain = 0
KTIS 200010Z 01004KT 04/M05 A3026 RMK A01 T00421048  RH  052%=      5-min Rain = 0
KTIS 200015Z 03004KT 04/M05 A3026 RMK A01 T00391050  RH  052%=      5-min Rain = 0
KTIS 200020Z 03005KT 03/M05 A3026 RMK A01 T00341052  RH  053%=      5-min Rain = 0
KTIS 200025Z 04005KT 03/M05 A3026 RMK A01 T00321052  RH  054%=      5-min Rain = 0
KTIS 200030Z 04005KT 03/M05 A3026 RMK A01 T00311051  RH  055%=      5-min Rain = 0
KTIS 200035Z 03005KT 03/M05 A3026 RMK A01 T00331051  RH  055%=      5-min Rain = 0
KTIS 200040Z 03004KT 03/M05 A3026 RMK A01 T00331051  RH  054%=      5-min Rain = 0
KTIS 200045Z 03004KT 03/M05 A3026 RMK A01 T00301054  RH  054%=      5-min Rain = 0
KTIS 200050Z 04003KT 03/M06 A3026 RMK A01 T00251056  RH  055%=      5-min Rain = 0
KTIS 200055Z 04004KT 02/M06 A3026 RMK A01 T00231057  RH  056%=      5-min Rain = 0
KTIS 200100Z 04002KT 02/M06 A3026 RMK A01 T00201057  RH  057%=      5-min Rain = 0
KTIS 200105Z 05003KT 02/M06 A3026 RMK A01 T00171057  RH  058%=      5-min Rain = 0
KTIS 200110Z 05003KT 02/M06 A3026 RMK A01 T00181055  RH  058%=      5-min Rain = 0
KTIS 200115Z 06003KT 02/M06 A3025 RMK A01 T00191056  RH  058%=      5-min Rain = 0
KTIS 200120Z 05004KT 02/M06 A3025 RMK A01 T00171058  RH  058%=      5-min Rain = 0
KTIS 200125Z 06005KT 01/M06 A3024 RMK A01 T00121060  RH  058%=      5-min Rain = 0
KTIS 200130Z 07005KT 01/M06 A3024 RMK A01 T00081061  RH  060%=      5-min Rain = 0
KTIS 200135Z 09005KT 01/M06 A3024 RMK A01 T00091060  RH  060%=      5-min Rain = 0
KTIS 200140Z 09004KT 00/M06 A3023 RMK A01 T00041064  RH  060%=      5-min Rain = 0
KTIS 200145Z 09004KT 00/06 A3023 RMK A01 T00-00-60  RH  064%=      5-min Rain = 0
KTIS 200150Z 08005KT M00/M06 A3023 RMK A01 T10021061  RH  065%=      5-min Rain = 0
KTIS 200155Z 08005KT 00/06 A3023 RMK A01 T00000-59  RH  065%=      5-min Rain = 0
KTIS 200200Z 08004KT 00/M06 A3024 RMK A01 T00011060  RH  064%=      5-min Rain = 0
KTIS 200205Z 09003KT M00/M06 A3025 RMK A01 T10011060  RH  064%=      5-min Rain = 0
KTIS 200210Z 08003KT M00/M06 A3025 RMK A01 T10031062  RH  065%=      5-min Rain = 0
KTIS 200215Z 08003KT M00/M06 A3025 RMK A01 T10041061  RH  066%=      5-min Rain = 0
KTIS 200220Z 08003KT M00/M06 A3025 RMK A01 T10021059  RH  065%=      5-min Rain = 0
KTIS 200225Z 08002KT M00/M06 A3026 RMK A01 T10011060  RH  064%=      5-min Rain = 0
KTIS 200230Z 09001KT M00/M06 A3027 RMK A01 T10011062  RH  064%=      5-min Rain = 0
KTIS 200235Z 12003KT M01/M07 A3027 RMK A01 T10081065  RH  066%=      5-min Rain = 0
KTIS 200240Z 12003KT M00/M06 A3027 RMK A01 T10041060  RH  066%=      5-min Rain = 0
KTIS 200245Z 13003KT 00/M06 A3026 RMK A01 T00021058  RH  064%=      5-min Rain = 0
KTIS 200250Z 14004KT 00/M06 A3026 RMK A01 T00031056  RH  065%=      5-min Rain = 0
KTIS 200255Z 14005KT M00/M06 A3026 RMK A01 T10011058  RH  066%=      5-min Rain = 0
KTIS 200300Z 15005KT M01/M06 A3027 RMK A01 T10091064  RH  067%=      5-min Rain = 0
KTIS 200305Z 15004KT M01/M07 A3027 RMK A01 T10141067  RH  067%=      5-min Rain = 0
KTIS 200310Z 15004KT M01/M06 A3026 RMK A01 T10101062  RH  068%=      5-min Rain = 0
KTIS 200315Z 13006KT M01/M06 A3025 RMK A01 T10101062  RH  068%=      5-min Rain = 0
KTIS 200320Z 13006KT M02/M07 A3025 RMK A01 T10151065  RH  068%=      5-min Rain = 0
KTIS 200325Z 13005KT M01/M07 A3026 RMK A01 T10131065  RH  068%=      5-min Rain = 0
KTIS 200330Z 14005KT M01/M06 A3025 RMK A01 T10111061  RH  069%=      5-min Rain = 0
KTIS 200335Z 12004KT M01/M06 A3025 RMK A01 T10121063  RH  068%=      5-min Rain = 0
KTIS 200340Z 12004KT M01/M06 A3025 RMK A01 T10141062  RH  070%=      5-min Rain = 0
KTIS 200345Z 13004KT M01/M06 A3025 RMK A01 T10131059  RH  071%=      5-min Rain = 0
KTIS 200350Z 13004KT M01/M06 A3025 RMK A01 T10131062  RH  069%=      5-min Rain = 0
KTIS 200355Z 13004KT M01/M06 A3025 RMK A01 T10121061  RH  069%=      5-min Rain = 0
KTIS 200400Z 13005KT M01/M06 A3025 RMK A01 T10111063  RH  068%=      5-min Rain = 0
KTIS 200405Z 13005KT M02/M07 A3024 RMK A01 T10151065  RH  069%=      5-min Rain = 0
KTIS 200410Z 14005KT M02/M07 A3025 RMK A01 T10171065  RH  070%=      5-min Rain = 0
KTIS 200415Z 14005KT M01/M06 A3025 RMK A01 T10131060  RH  070%=      5-min Rain = 0
KTIS 200420Z 14005KT M01/M06 A3025 RMK A01 T10121061  RH  070%=      5-min Rain = 0
KTIS 200425Z 14006KT M01/M06 A3025 RMK A01 T10131061  RH  070%=      5-min Rain = 0
KTIS 200430Z 14006KT M01/M06 A3025 RMK A01 T10141062  RH  070%=      5-min Rain = 0
KTIS 200435Z 14005KT M01/M06 A3025 RMK A01 T10121061  RH  070%=      5-min Rain = 0
KTIS 200440Z 15007KT M01/M06 A3025 RMK A01 T10131062  RH  069%=      5-min Rain = 0
KTIS 200445Z 15007KT M01/M06 A3025 RMK A01 T10121060  RH  070%=      5-min Rain = 0
KTIS 200450Z 16008KT M01/M06 A3025 RMK A01 T10091059  RH  069%=      5-min Rain = 0
KTIS 200455Z 16008KT M01/M06 A3025 RMK A01 T10081059  RH  068%=      5-min Rain = 0
KTIS 200500Z 17007KT M01/M06 A3026 RMK A01 T10081060  RH  068%=      5-min Rain = 0
KTIS 200505Z 18007KT M01/M06 A3026 RMK A01 T10121062  RH  069%=      5-min Rain = 0
KTIS 200510Z 17007KT M02/M06 A3026 RMK A01 T10151063  RH  070%=      5-min Rain = 0
KTIS 200515Z 16006KT M02/M06 A3026 RMK A01 T10161064  RH  070%=      5-min Rain = 0
KTIS 200520Z 16007KT M02/M06 A3025 RMK A01 T10161061  RH  071%=      5-min Rain = 0
KTIS 200525Z 16008KT M02/M06 A3025 RMK A01 T10151061  RH  071%=      5-min Rain = 0
KTIS 200530Z 16009KT M01/M06 A3026 RMK A01 T10121059  RH  070%=      5-min Rain = 0
KTIS 200535Z 17009KT M01/M06 A3027 RMK A01 T10101058  RH  070%=      5-min Rain = 0
KTIS 200540Z 16008KT M01/M06 A3027 RMK A01 T10091059  RH  069%=      5-min Rain = 0
KTIS 200545Z 17009KT M01/M06 A3027 RMK A01 T10121060  RH  070%=      5-min Rain = 0
KTIS 200550Z 16008KT M01/M06 A3026 RMK A01 T10141060  RH  071%=      5-min Rain = 0
KTIS 200555Z 17008KT M02/M06 A3027 RMK A01 T10161060  RH  072%=      5-min Rain = 0

Page generated in 0.0381 seconds.